sensor_id;sensor_type;location;lat;lon;timestamp;P1;durP1;ratioP1;P2;durP2;ratioP2
21107;SDS011;10712;52.944;9.098;2023-08-24T17:03:29;4.32;;;3.30;;
21107;SDS011;10712;52.944;9.098;2023-08-24T17:05:55;4.18;;;2.95;;
21107;SDS011;10712;52.944;9.098;2023-08-24T17:08:21;5.10;;;3.55;;
21107;SDS011;10712;52.944;9.098;2023-08-24T17:10:46;3.83;;;3.22;;
21107;SDS011;10712;52.944;9.098;2023-08-24T17:13:12;3.15;;;2.88;;
21107;SDS011;10712;52.944;9.098;2023-08-24T17:15:38;3.17;;;2.87;;
21107;SDS011;10712;52.944;9.098;2023-08-24T17:18:03;3.40;;;3.10;;
21107;SDS011;10712;52.944;9.098;2023-08-24T17:20:29;2.72;;;2.53;;
21107;SDS011;10712;52.944;9.098;2023-08-24T17:23:00;7.82;;;6.03;;
21107;SDS011;10712;52.944;9.098;2023-08-24T17:25:26;5.78;;;5.30;;
21107;SDS011;10712;52.944;9.098;2023-08-24T17:27:51;6.75;;;6.05;;
21107;SDS011;10712;52.944;9.098;2023-08-24T17:30:17;5.30;;;4.85;;
21107;SDS011;10712;52.944;9.098;2023-08-24T17:32:44;4.22;;;3.88;;
21107;SDS011;10712;52.944;9.098;2023-08-24T17:35:09;4.18;;;3.80;;
21107;SDS011;10712;52.944;9.098;2023-08-24T17:37:35;3.70;;;3.40;;
21107;SDS011;10712;52.944;9.098;2023-08-24T17:40:02;5.85;;;3.70;;
21107;SDS011;10712;52.944;9.098;2023-08-24T17:42:32;3.83;;;3.40;;
21107;SDS011;10712;52.944;9.098;2023-08-24T17:44:58;3.53;;;3.22;;
21107;SDS011;10712;52.944;9.098;2023-08-24T17:47:24;4.00;;;3.20;;
21107;SDS011;10712;52.944;9.098;2023-08-24T17:49:50;3.97;;;2.85;;
21107;SDS011;10712;52.944;9.098;2023-08-24T17:52:15;4.60;;;3.20;;
21107;SDS011;10712;52.944;9.098;2023-08-24T17:54:41;2.85;;;2.65;;
21107;SDS011;10712;52.944;9.098;2023-08-24T17:57:07;4.68;;;3.17;;
21107;SDS011;10712;52.944;9.098;2023-08-24T17:59:33;3.45;;;3.20;;
21107;SDS011;10712;52.944;9.098;2023-08-24T18:01:59;3.42;;;3.08;;
21107;SDS011;10712;52.944;9.098;2023-08-24T18:04:25;3.22;;;2.75;;
21107;SDS011;10712;52.944;9.098;2023-08-24T18:06:50;11.68;;;4.00;;
21107;SDS011;10712;52.944;9.098;2023-08-24T18:09:16;3.67;;;3.20;;
21107;SDS011;10712;52.944;9.098;2023-08-24T18:11:42;3.40;;;3.20;;
21107;SDS011;10712;52.944;9.098;2023-08-24T18:14:08;3.75;;;3.33;;
21107;SDS011;10712;52.944;9.098;2023-08-24T18:16:34;4.15;;;3.47;;
21107;SDS011;10712;52.944;9.098;2023-08-24T18:19:00;3.67;;;3.30;;
21107;SDS011;10712;52.944;9.098;2023-08-24T18:21:25;3.78;;;3.47;;
21107;SDS011;10712;52.944;9.098;2023-08-24T18:23:51;4.00;;;3.70;;
21107;SDS011;10712;52.944;9.098;2023-08-24T18:26:17;3.90;;;3.50;;
21107;SDS011;10712;52.944;9.098;2023-08-24T18:28:43;3.88;;;3.58;;
21107;SDS011;10712;52.944;9.098;2023-08-24T18:31:09;3.30;;;3.10;;
21107;SDS011;10712;52.944;9.098;2023-08-24T18:33:34;3.20;;;3.00;;
21107;SDS011;10712;52.944;9.098;2023-08-24T18:36:00;3.92;;;3.47;;
21107;SDS011;10712;52.944;9.098;2023-08-24T18:38:26;3.38;;;3.17;;
21107;SDS011;10712;52.944;9.098;2023-08-24T18:40:52;3.72;;;3.42;;
21107;SDS011;10712;52.944;9.098;2023-08-24T18:43:19;4.20;;;3.80;;
21107;SDS011;10712;52.944;9.098;2023-08-24T18:45:59;4.43;;;4.03;;
21107;SDS011;10712;52.944;9.098;2023-08-24T18:48:29;3.85;;;3.55;;
21107;SDS011;10712;52.944;9.098;2023-08-24T18:50:56;4.70;;;3.70;;
21107;SDS011;10712;52.944;9.098;2023-08-24T18:53:22;3.72;;;3.42;;
21107;SDS011;10712;52.944;9.098;2023-08-24T18:55:51;4.60;;;3.85;;
21107;SDS011;10712;52.944;9.098;2023-08-24T18:58:19;4.25;;;3.53;;
21107;SDS011;10712;52.944;9.098;2023-08-24T19:00:45;3.60;;;3.30;;
21107;SDS011;10712;52.944;9.098;2023-08-24T19:03:10;3.85;;;3.47;;
21107;SDS011;10712;52.944;9.098;2023-08-24T19:05:36;3.63;;;3.33;;
21107;SDS011;10712;52.944;9.098;2023-08-24T19:08:02;3.63;;;3.35;;
21107;SDS011;10712;52.944;9.098;2023-08-24T19:10:28;6.53;;;4.00;;
21107;SDS011;10712;52.944;9.098;2023-08-24T19:12:54;4.00;;;3.80;;
21107;SDS011;10712;52.944;9.098;2023-08-24T19:15:20;4.38;;;3.97;;
21107;SDS011;10712;52.944;9.098;2023-08-24T19:17:46;4.20;;;3.90;;
21107;SDS011;10712;52.944;9.098;2023-08-24T19:20:11;4.20;;;3.80;;
21107;SDS011;10712;52.944;9.098;2023-08-24T19:22:37;6.13;;;3.55;;
21107;SDS011;10712;52.944;9.098;2023-08-24T19:25:03;4.22;;;3.83;;
21107;SDS011;10712;52.944;9.098;2023-08-24T19:27:31;4.22;;;3.85;;
21107;SDS011;10712;52.944;9.098;2023-08-24T19:29:57;4.32;;;3.97;;
21107;SDS011;10712;52.944;9.098;2023-08-24T19:32:23;5.50;;;3.85;;
21107;SDS011;10712;52.944;9.098;2023-08-24T19:34:49;4.07;;;3.67;;
21107;SDS011;10712;52.944;9.098;2023-08-24T19:37:15;4.28;;;3.58;;
21107;SDS011;10712;52.944;9.098;2023-08-24T19:39:41;4.35;;;3.95;;
21107;SDS011;10712;52.944;9.098;2023-08-24T19:42:06;3.78;;;3.47;;
21107;SDS011;10712;52.944;9.098;2023-08-24T19:44:32;4.38;;;3.97;;
21107;SDS011;10712;52.944;9.098;2023-08-24T19:46:59;3.75;;;3.50;;
21107;SDS011;10712;52.944;9.098;2023-08-24T19:49:24;5.18;;;3.63;;
21107;SDS011;10712;52.944;9.098;2023-08-24T19:51:50;4.32;;;3.92;;
21107;SDS011;10712;52.944;9.098;2023-08-24T19:54:16;4.13;;;3.83;;
21107;SDS011;10712;52.944;9.098;2023-08-24T19:56:43;6.82;;;4.00;;
21107;SDS011;10712;52.944;9.098;2023-08-24T19:59:09;4.93;;;4.18;;
21107;SDS011;10712;52.944;9.098;2023-08-24T20:01:35;4.18;;;3.80;;
21107;SDS011;10712;52.944;9.098;2023-08-24T20:04:00;5.80;;;4.30;;
21107;SDS011;10712;52.944;9.098;2023-08-24T20:06:29;6.43;;;4.55;;
21107;SDS011;10712;52.944;9.098;2023-08-24T20:08:55;4.80;;;4.40;;
21107;SDS011;10712;52.944;9.098;2023-08-24T20:11:21;7.07;;;4.15;;
21107;SDS011;10712;52.944;9.098;2023-08-24T20:13:48;4.22;;;3.83;;
21107;SDS011;10712;52.944;9.098;2023-08-24T20:16:14;4.22;;;3.70;;
21107;SDS011;10712;52.944;9.098;2023-08-24T20:18:40;4.13;;;3.83;;
21107;SDS011;10712;52.944;9.098;2023-08-24T20:21:08;3.85;;;3.55;;
21107;SDS011;10712;52.944;9.098;2023-08-24T20:23:37;4.07;;;3.80;;
21107;SDS011;10712;52.944;9.098;2023-08-24T20:26:05;4.75;;;3.92;;
21107;SDS011;10712;52.944;9.098;2023-08-24T20:28:34;4.03;;;3.72;;
21107;SDS011;10712;52.944;9.098;2023-08-24T20:31:01;3.88;;;3.58;;
21107;SDS011;10712;52.944;9.098;2023-08-24T20:33:28;4.93;;;4.53;;
21107;SDS011;10712;52.944;9.098;2023-08-24T20:35:54;4.60;;;4.10;;
21107;SDS011;10712;52.944;9.098;2023-08-24T20:38:20;4.97;;;4.03;;
21107;SDS011;10712;52.944;9.098;2023-08-24T20:40:47;5.78;;;4.38;;
21107;SDS011;10712;52.944;9.098;2023-08-24T20:43:13;5.10;;;4.55;;
21107;SDS011;10712;52.944;9.098;2023-08-24T20:45:39;6.82;;;4.30;;
21107;SDS011;10712;52.944;9.098;2023-08-24T20:48:05;4.32;;;3.92;;
21107;SDS011;10712;52.944;9.098;2023-08-24T20:50:31;5.53;;;4.10;;
21107;SDS011;10712;52.944;9.098;2023-08-24T20:52:57;11.13;;;4.95;;
21107;SDS011;10712;52.944;9.098;2023-08-24T20:55:25;4.45;;;4.05;;
21107;SDS011;10712;52.944;9.098;2023-08-24T20:57:51;4.93;;;4.13;;
21107;SDS011;10712;52.944;9.098;2023-08-24T21:00:17;5.25;;;4.75;;
21107;SDS011;10712;52.944;9.098;2023-08-24T21:02:43;4.00;;;3.70;;
21107;SDS011;10712;52.944;9.098;2023-08-24T21:05:09;4.35;;;3.95;;
21107;SDS011;10712;52.944;9.098;2023-08-24T21:07:35;4.25;;;3.95;;
21107;SDS011;10712;52.944;9.098;2023-08-24T21:10:01;4.75;;;4.35;;
21107;SDS011;10712;52.944;9.098;2023-08-24T21:12:27;6.10;;;4.28;;
21107;SDS011;10712;52.944;9.098;2023-08-24T21:14:53;5.55;;;4.20;;
21107;SDS011;10712;52.944;9.098;2023-08-24T21:17:19;4.22;;;3.90;;
21107;SDS011;10712;52.944;9.098;2023-08-24T21:19:46;4.53;;;4.13;;
21107;SDS011;10712;52.944;9.098;2023-08-24T21:22:11;7.82;;;4.90;;
21107;SDS011;10712;52.944;9.098;2023-08-24T21:24:37;4.93;;;4.53;;
21107;SDS011;10712;52.944;9.098;2023-08-24T21:27:03;6.57;;;4.35;;
21107;SDS011;10712;52.944;9.098;2023-08-24T21:29:29;4.95;;;4.38;;
21107;SDS011;10712;52.944;9.098;2023-08-24T21:31:56;5.40;;;4.30;;
21107;SDS011;10712;52.944;9.098;2023-08-24T21:34:21;5.30;;;4.78;;
21107;SDS011;10712;52.944;9.098;2023-08-24T21:36:47;5.55;;;4.60;;
21107;SDS011;10712;52.944;9.098;2023-08-24T21:39:13;9.13;;;5.20;;
21107;SDS011;10712;52.944;9.098;2023-08-24T21:41:38;5.70;;;5.20;;
21107;SDS011;10712;52.944;9.098;2023-08-24T21:44:04;5.32;;;4.85;;
21107;SDS011;10712;52.944;9.098;2023-08-24T21:46:30;5.22;;;4.75;;
21107;SDS011;10712;52.944;9.098;2023-08-24T21:48:57;6.32;;;4.63;;
21107;SDS011;10712;52.944;9.098;2023-08-24T21:51:22;7.40;;;6.38;;
21107;SDS011;10712;52.944;9.098;2023-08-24T21:53:48;12.73;;;9.90;;
21107;SDS011;10712;52.944;9.098;2023-08-24T21:56:14;9.48;;;8.55;;
21107;SDS011;10712;52.944;9.098;2023-08-24T21:58:40;7.88;;;7.10;;
21107;SDS011;10712;52.944;9.098;2023-08-24T22:01:07;7.75;;;6.65;;
21107;SDS011;10712;52.944;9.098;2023-08-24T22:03:33;6.73;;;5.93;;
21107;SDS011;10712;52.944;9.098;2023-08-24T22:06:00;10.68;;;6.15;;
21107;SDS011;10712;52.944;9.098;2023-08-24T22:08:28;7.55;;;6.57;;
21107;SDS011;10712;52.944;9.098;2023-08-24T22:10:54;6.68;;;5.72;;
21107;SDS011;10712;52.944;9.098;2023-08-24T22:13:21;6.68;;;5.53;;
21107;SDS011;10712;52.944;9.098;2023-08-24T22:15:49;6.15;;;5.55;;
21107;SDS011;10712;52.944;9.098;2023-08-24T22:18:16;5.88;;;5.38;;
21107;SDS011;10712;52.944;9.098;2023-08-24T22:20:45;5.90;;;5.40;;
21107;SDS011;10712;52.944;9.098;2023-08-24T22:23:11;6.00;;;5.40;;
21107;SDS011;10712;52.944;9.098;2023-08-24T22:25:38;6.22;;;5.60;;
21107;SDS011;10712;52.944;9.098;2023-08-24T22:28:05;6.18;;;5.57;;
21107;SDS011;10712;52.944;9.098;2023-08-24T22:30:32;6.15;;;5.40;;
21107;SDS011;10712;52.944;9.098;2023-08-24T22:32:58;5.95;;;4.93;;
21107;SDS011;10712;52.944;9.098;2023-08-24T22:35:24;5.20;;;4.80;;
21107;SDS011;10712;52.944;9.098;2023-08-24T22:37:50;7.63;;;6.93;;
21107;SDS011;10712;52.944;9.098;2023-08-24T22:40:16;7.35;;;6.10;;
21107;SDS011;10712;52.944;9.098;2023-08-24T22:42:42;6.65;;;6.15;;
21107;SDS011;10712;52.944;9.098;2023-08-24T22:45:07;7.63;;;6.13;;
21107;SDS011;10712;52.944;9.098;2023-08-24T22:47:37;6.60;;;5.90;;
21107;SDS011;10712;52.944;9.098;2023-08-24T22:50:03;8.52;;;6.35;;
21107;SDS011;10712;52.944;9.098;2023-08-24T22:52:34;11.40;;;7.05;;
21107;SDS011;10712;52.944;9.098;2023-08-24T22:55:04;6.18;;;5.57;;
21107;SDS011;10712;52.944;9.098;2023-08-24T22:57:31;6.88;;;5.95;;
21107;SDS011;10712;52.944;9.098;2023-08-24T22:59:58;6.07;;;5.57;;
21107;SDS011;10712;52.944;9.098;2023-08-24T23:02:28;6.53;;;5.53;;
21107;SDS011;10712;52.944;9.098;2023-08-24T23:04:54;6.07;;;5.47;;
21107;SDS011;10712;52.944;9.098;2023-08-24T23:07:20;8.10;;;6.28;;
21107;SDS011;10712;52.944;9.098;2023-08-24T23:09:46;10.02;;;8.23;;
21107;SDS011;10712;52.944;9.098;2023-08-24T23:12:12;9.18;;;6.25;;
21107;SDS011;10712;52.944;9.098;2023-08-24T23:14:38;6.68;;;5.88;;
21107;SDS011;10712;52.944;9.098;2023-08-24T23:17:04;6.95;;;5.22;;
21107;SDS011;10712;52.944;9.098;2023-08-24T23:19:30;8.13;;;5.25;;
21107;SDS011;10712;52.944;9.098;2023-08-24T23:22:00;7.18;;;5.53;;
21107;SDS011;10712;52.944;9.098;2023-08-24T23:24:27;7.47;;;5.75;;
21107;SDS011;10712;52.944;9.098;2023-08-24T23:26:53;6.80;;;5.25;;
21107;SDS011;10712;52.944;9.098;2023-08-24T23:29:19;7.82;;;5.95;;
21107;SDS011;10712;52.944;9.098;2023-08-24T23:31:44;6.32;;;5.35;;
21107;SDS011;10712;52.944;9.098;2023-08-24T23:34:10;7.70;;;6.47;;
21107;SDS011;10712;52.944;9.098;2023-08-24T23:36:36;6.88;;;5.55;;
21107;SDS011;10712;52.944;9.098;2023-08-24T23:39:02;7.13;;;6.30;;
21107;SDS011;10712;52.944;9.098;2023-08-24T23:41:28;7.72;;;5.97;;
21107;SDS011;10712;52.944;9.098;2023-08-24T23:43:54;7.95;;;6.70;;
21107;SDS011;10712;52.944;9.098;2023-08-24T23:46:20;6.53;;;5.70;;
21107;SDS011;10712;52.944;9.098;2023-08-24T23:48:46;6.75;;;6.13;;
21107;SDS011;10712;52.944;9.098;2023-08-24T23:51:13;5.47;;;4.63;;
21107;SDS011;10712;52.944;9.098;2023-08-24T23:53:39;6.07;;;5.53;;
21107;SDS011;10712;52.944;9.098;2023-08-24T23:56:04;6.43;;;5.88;;
21107;SDS011;10712;52.944;9.098;2023-08-24T23:58:30;7.50;;;5.13;;
